createdAt,value
2018-01-25T00:01:38.229Z,97.66
2018-01-25T00:04:05.739Z,97.69
2018-01-25T00:06:33.257Z,97.57
2018-01-25T00:09:00.774Z,97.59
2018-01-25T00:11:28.297Z,97.51
2018-01-25T00:13:55.811Z,97.29
2018-01-25T00:16:23.318Z,97.40
2018-01-25T00:18:50.819Z,97.19
2018-01-25T00:21:18.354Z,97.50
2018-01-25T00:23:45.859Z,97.44
2018-01-25T00:26:13.365Z,97.40
2018-01-25T00:28:40.868Z,97.78
2018-01-25T00:31:08.393Z,98.08
2018-01-25T00:33:35.928Z,97.99
2018-01-25T00:36:03.436Z,98.04
2018-01-25T00:38:31.053Z,97.88
2018-01-25T00:40:58.568Z,97.98
2018-01-25T00:43:26.073Z,98.07
2018-01-25T00:45:54.119Z,98.49
2018-01-25T00:48:21.624Z,98.94
2018-01-25T00:50:49.139Z,99.07
2018-01-25T00:53:16.643Z,99.18
2018-01-25T00:55:44.153Z,99.37
2018-01-25T00:58:11.657Z,99.36
2018-01-25T01:00:39.162Z,99.39
2018-01-25T01:03:06.653Z,99.34
2018-01-25T01:05:34.163Z,99.14
2018-01-25T01:08:01.803Z,98.96
2018-01-25T01:10:29.312Z,98.61
2018-01-25T01:12:56.819Z,98.79
2018-01-25T01:15:24.348Z,98.66
2018-01-25T01:17:51.863Z,98.43
2018-01-25T01:20:19.367Z,97.95
2018-01-25T01:22:46.881Z,98.18
2018-01-25T01:25:14.402Z,98.87
2018-01-25T01:27:41.902Z,98.89
2018-01-25T01:30:09.408Z,98.97
2018-01-25T01:32:36.911Z,98.85
2018-01-25T01:35:04.437Z,98.79
2018-01-25T01:37:31.967Z,98.67
2018-01-25T01:39:59.469Z,98.30
2018-01-25T01:42:27.032Z,97.72
2018-01-25T01:44:54.548Z,97.47
2018-01-25T01:47:22.073Z,97.32
2018-01-25T01:49:49.584Z,97.48
2018-01-25T01:52:17.088Z,97.93
2018-01-25T01:54:44.607Z,97.85
2018-01-25T01:57:12.126Z,97.95
2018-01-25T01:59:39.619Z,97.76
2018-01-25T02:02:07.133Z,97.54
2018-01-25T02:04:34.644Z,97.68
2018-01-25T02:07:02.162Z,98.23
2018-01-25T02:09:29.671Z,98.18
2018-01-25T02:11:57.182Z,97.54
2018-01-25T02:14:24.704Z,97.55
2018-01-25T02:16:53.264Z,97.52
2018-01-25T02:19:20.776Z,97.34
2018-01-25T02:21:48.291Z,97.11
2018-01-25T02:24:15.808Z,97.36
2018-01-25T02:26:43.322Z,97.54
2018-01-25T02:29:10.847Z,97.51
2018-01-25T02:31:38.377Z,97.47
2018-01-25T02:34:05.881Z,97.45
2018-01-25T02:36:33.428Z,97.25
2018-01-25T02:39:00.949Z,97.15
2018-01-25T02:41:28.487Z,96.94
2018-01-25T02:43:56.007Z,96.89
2018-01-25T02:46:23.504Z,96.38
2018-01-25T02:48:51.018Z,96.56
2018-01-25T02:51:18.544Z,97.12
2018-01-25T02:53:46.063Z,97.40
2018-01-25T02:56:13.567Z,97.72
2018-01-25T02:58:41.083Z,97.88
2018-01-25T03:01:08.624Z,97.89
2018-01-25T03:03:36.139Z,97.63
2018-01-25T03:06:03.637Z,97.35
2018-01-25T03:08:31.139Z,97.35
2018-01-25T03:10:58.657Z,97.46
2018-01-25T03:13:26.167Z,97.58
2018-01-25T03:15:54.237Z,97.50
2018-01-25T03:18:21.754Z,97.63
2018-01-25T03:20:49.253Z,97.80
2018-01-25T03:23:16.768Z,97.79
2018-01-25T03:25:44.289Z,98.05
2018-01-25T03:28:11.809Z,98.00
2018-01-25T03:30:39.340Z,97.99
2018-01-25T03:33:06.859Z,98.05
2018-01-25T03:35:34.363Z,98.09
2018-01-25T03:38:01.858Z,98.08
2018-01-25T03:40:29.363Z,98.32
2018-01-25T03:42:56.878Z,98.59
2018-01-25T03:45:25.944Z,98.85
2018-01-25T03:47:53.463Z,98.62
2018-01-25T03:50:20.999Z,98.43
2018-01-25T03:52:48.509Z,98.17
2018-01-25T03:55:16.002Z,97.74
2018-01-25T03:57:43.493Z,97.35
2018-01-25T04:00:11.004Z,97.25
2018-01-25T04:02:38.578Z,97.27
2018-01-25T04:05:06.094Z,97.34
2018-01-25T04:07:33.604Z,97.01
2018-01-25T04:10:01.118Z,97.14
2018-01-25T04:12:28.628Z,97.29
2018-01-25T04:14:56.140Z,97.50
2018-01-25T04:17:23.651Z,97.37
2018-01-25T04:19:51.171Z,97.56
2018-01-25T04:22:18.679Z,97.73
2018-01-25T04:24:46.193Z,97.44
2018-01-25T04:27:13.702Z,97.32
2018-01-25T04:29:41.185Z,97.25
2018-01-25T04:32:08.703Z,97.04
2018-01-25T04:34:36.221Z,96.81
2018-01-25T04:37:03.883Z,97.10
2018-01-25T04:39:31.389Z,98.18
2018-01-25T04:41:58.900Z,98.24
2018-01-25T04:44:26.428Z,98.35
2018-01-25T04:46:53.949Z,98.00
2018-01-25T04:49:21.455Z,97.72
2018-01-25T04:51:48.964Z,97.42
2018-01-25T04:54:16.492Z,96.46
2018-01-25T04:56:43.996Z,96.15
2018-01-25T04:59:11.518Z,96.18
2018-01-25T05:01:39.052Z,95.92
2018-01-25T05:04:06.559Z,95.51
2018-01-25T05:06:34.089Z,94.58
2018-01-25T05:09:01.609Z,94.91
2018-01-25T05:11:29.128Z,95.88
2018-01-25T05:13:56.644Z,96.51
2018-01-25T05:16:24.157Z,96.76
2018-01-25T05:18:51.672Z,96.69
2018-01-25T05:21:19.182Z,97.37
2018-01-25T05:23:46.714Z,97.55
2018-01-25T05:26:14.238Z,97.65
2018-01-25T05:28:41.764Z,97.99
2018-01-25T05:31:09.285Z,97.06
2018-01-25T05:33:36.800Z,96.50
2018-01-25T05:36:04.319Z,95.87
2018-01-25T05:38:31.832Z,95.74
2018-01-25T05:40:59.348Z,96.03
2018-01-25T05:43:26.868Z,96.17
2018-01-25T05:45:55.114Z,96.59
2018-01-25T05:48:22.618Z,97.80
2018-01-25T05:50:50.140Z,98.50
2018-01-25T05:53:17.653Z,98.55
2018-01-25T05:55:45.162Z,98.09
2018-01-25T05:58:12.677Z,97.72
2018-01-25T06:00:40.184Z,97.98
2018-01-25T06:03:07.702Z,98.22
2018-01-25T06:05:35.214Z,98.19
2018-01-25T06:08:02.740Z,97.77
2018-01-25T06:10:30.249Z,97.38
2018-01-25T06:12:57.789Z,97.46
2018-01-25T06:15:25.305Z,96.99
2018-01-25T06:17:52.872Z,96.86
2018-01-25T06:20:20.384Z,96.67
2018-01-25T06:22:47.900Z,96.97
2018-01-25T06:25:15.438Z,96.58
2018-01-25T06:27:42.961Z,97.05
2018-01-25T06:30:10.476Z,97.24
2018-01-25T06:32:38.003Z,97.57
2018-01-25T06:35:05.517Z,97.88
2018-01-25T06:37:33.045Z,98.20
2018-01-25T06:40:00.563Z,98.35
2018-01-25T06:42:28.087Z,98.16
2018-01-25T06:44:55.612Z,98.30
2018-01-25T06:47:23.133Z,98.37
2018-01-25T06:49:50.657Z,98.28
2018-01-25T06:52:18.189Z,98.17
2018-01-25T06:54:45.718Z,97.88
2018-01-25T06:57:13.253Z,98.22
2018-01-25T06:59:40.802Z,98.23
2018-01-25T07:02:08.308Z,98.29
2018-01-25T07:04:35.844Z,98.12
2018-01-25T07:07:03.380Z,98.14
2018-01-25T07:09:31.182Z,98.44
2018-01-25T07:11:58.707Z,98.53
2018-01-25T07:14:26.232Z,97.99
2018-01-25T07:16:53.773Z,97.74
2018-01-25T07:19:21.303Z,97.78
2018-01-25T07:21:48.819Z,98.00
2018-01-25T07:24:16.449Z,98.16
2018-01-25T07:26:43.954Z,97.70
2018-01-25T07:29:11.463Z,97.40
2018-01-25T07:31:39.126Z,97.08
2018-01-25T07:34:06.665Z,96.58
2018-01-25T07:36:34.190Z,95.79
2018-01-25T07:39:01.789Z,95.75
2018-01-25T07:41:29.563Z,96.28
2018-01-25T07:43:57.080Z,96.71
2018-01-25T07:46:24.599Z,96.71
2018-01-25T07:48:52.149Z,96.53
2018-01-25T07:51:19.649Z,96.37
2018-01-25T07:53:47.152Z,96.59
2018-01-25T07:56:14.846Z,96.52
2018-01-25T07:58:42.375Z,95.84
2018-01-25T08:01:09.877Z,96.25
2018-01-25T08:03:37.386Z,96.19
2018-01-25T08:06:04.924Z,96.31
2018-01-25T08:08:32.439Z,95.99
2018-01-25T08:10:59.944Z,95.45
2018-01-25T08:13:33.148Z,95.54
2018-01-25T08:16:06.349Z,96.02
2018-01-25T08:18:33.874Z,97.17
2018-01-25T08:21:01.389Z,97.14
2018-01-25T08:23:28.906Z,96.88
2018-01-25T08:25:56.414Z,96.46
2018-01-25T08:28:23.963Z,95.79
2018-01-25T08:30:51.494Z,95.59
2018-01-25T08:33:19.034Z,95.04
2018-01-25T08:35:46.570Z,94.49
2018-01-25T08:38:14.104Z,94.62
2018-01-25T08:40:41.653Z,94.37
2018-01-25T08:43:09.169Z,94.74
2018-01-25T08:45:36.673Z,95.02
2018-01-25T08:48:04.324Z,94.70
2018-01-25T08:50:31.850Z,94.43
2018-01-25T08:52:59.414Z,94.04
2018-01-25T08:55:26.924Z,93.84
2018-01-25T08:57:54.440Z,92.72
2018-01-25T09:00:21.945Z,91.91
2018-01-25T09:02:49.465Z,91.64
2018-01-25T09:05:17.005Z,91.09
2018-01-25T09:07:44.540Z,90.26
2018-01-25T09:10:12.160Z,89.95
2018-01-25T09:12:39.685Z,89.10
2018-01-25T09:15:07.209Z,89.18
2018-01-25T09:17:34.728Z,91.24
2018-01-25T09:20:02.273Z,91.81
2018-01-25T09:22:29.779Z,90.35
2018-01-25T09:24:57.299Z,87.98
2018-01-25T09:27:24.824Z,86.69
2018-01-25T09:29:52.350Z,85.27
2018-01-25T09:32:19.884Z,84.52
2018-01-25T09:34:47.424Z,84.13
2018-01-25T09:37:14.948Z,83.16
2018-01-25T09:39:42.471Z,82.18
2018-01-25T09:42:10.133Z,80.69
2018-01-25T09:44:37.720Z,80.81
2018-01-25T09:47:05.240Z,81.67
2018-01-25T09:49:32.848Z,82.14
2018-01-25T09:52:00.380Z,81.68
2018-01-25T09:54:27.914Z,80.96
2018-01-25T09:56:55.410Z,79.29
2018-01-25T09:59:22.919Z,77.80
2018-01-25T10:01:50.450Z,75.55
2018-01-25T10:04:18.148Z,76.71
2018-01-25T10:06:45.683Z,76.02
2018-01-25T10:09:13.213Z,74.46
2018-01-25T10:11:40.755Z,72.62
2018-01-25T10:14:08.288Z,71.17
2018-01-25T10:16:35.838Z,72.39
2018-01-25T10:19:03.394Z,71.69
2018-01-25T10:21:30.940Z,76.90
2018-01-25T10:23:58.579Z,69.88
2018-01-25T10:26:26.099Z,66.28
2018-01-25T10:28:53.643Z,63.83
2018-01-25T10:31:21.173Z,69.04
2018-01-25T10:33:48.861Z,67.50
2018-01-25T10:36:16.408Z,65.56
2018-01-25T10:38:44.112Z,64.47
2018-01-25T10:41:11.623Z,65.99
2018-01-25T10:43:39.151Z,67.12
2018-01-25T10:46:06.698Z,65.07
2018-01-25T10:48:34.301Z,67.49
2018-01-25T10:51:01.839Z,64.19
2018-01-25T10:53:29.362Z,62.77
2018-01-25T10:55:56.923Z,62.56
2018-01-25T10:58:24.560Z,60.39
2018-01-25T11:00:57.908Z,62.42
2018-01-25T11:03:25.424Z,61.94
2018-01-25T11:05:52.950Z,60.31
2018-01-25T11:08:20.468Z,59.06
2018-01-25T11:10:49.058Z,59.83
2018-01-25T11:13:16.613Z,58.67
2018-01-25T11:15:44.146Z,56.34
2018-01-25T11:18:11.679Z,52.84
2018-01-25T11:20:39.199Z,53.98
2018-01-25T11:23:06.719Z,51.18
2018-01-25T11:25:34.235Z,52.43
2018-01-25T11:28:03.228Z,51.63
2018-01-25T11:30:30.740Z,48.11
2018-01-25T11:32:58.250Z,47.68
2018-01-25T11:35:25.769Z,45.16
2018-01-25T11:37:53.264Z,44.70
2018-01-25T11:40:20.793Z,45.50
2018-01-25T11:42:48.318Z,41.91
2018-01-25T11:45:15.820Z,41.85
2018-01-25T11:47:43.340Z,41.94
2018-01-25T11:50:10.855Z,44.05
2018-01-25T11:52:38.367Z,45.02
2018-01-25T11:55:05.885Z,46.63
2018-01-25T11:57:33.408Z,47.39
2018-01-25T12:00:00.928Z,46.23
2018-01-25T12:02:29.179Z,46.99
2018-01-25T12:04:56.698Z,48.93
2018-01-25T12:07:24.193Z,50.80
2018-01-25T12:09:51.709Z,51.08
2018-01-25T12:12:19.328Z,51.05
2018-01-25T12:14:46.840Z,50.89
2018-01-25T12:17:14.799Z,52.28
2018-01-25T12:19:42.340Z,54.12
2018-01-25T12:22:09.874Z,54.07
2018-01-25T12:24:37.374Z,54.61
2018-01-25T12:27:05.188Z,53.64
2018-01-25T12:29:32.717Z,53.46
2018-01-25T12:32:00.363Z,53.17
2018-01-25T12:34:27.889Z,53.50
2018-01-25T12:36:55.418Z,54.83
2018-01-25T12:39:22.941Z,56.14
2018-01-25T12:41:50.474Z,56.75
2018-01-25T12:44:18.006Z,56.12
2018-01-25T12:46:45.574Z,55.92
2018-01-25T12:49:13.083Z,56.84
2018-01-25T12:51:40.606Z,55.99
2018-01-25T12:54:08.120Z,55.58
2018-01-25T12:56:35.640Z,54.79
2018-01-25T12:59:03.163Z,56.39
2018-01-25T13:01:30.699Z,56.43
2018-01-25T13:03:58.267Z,56.26
2018-01-25T13:06:25.793Z,56.37
2018-01-25T13:08:53.343Z,55.34
2018-01-25T13:11:20.879Z,56.11
2018-01-25T13:13:48.415Z,56.04
2018-01-25T13:16:15.983Z,57.51
2018-01-25T13:18:43.513Z,57.07
2018-01-25T13:21:11.045Z,57.38
2018-01-25T13:23:38.555Z,58.29
2018-01-25T13:26:06.079Z,57.89
2018-01-25T13:28:33.607Z,57.15
2018-01-25T13:31:01.143Z,56.58
2018-01-25T13:33:34.285Z,58.11
2018-01-25T13:36:01.808Z,58.10
2018-01-25T13:38:29.328Z,57.73
2018-01-25T13:40:56.861Z,53.97
2018-01-25T13:43:24.416Z,52.57
2018-01-25T13:45:51.945Z,53.74
2018-01-25T13:48:19.474Z,55.75
2018-01-25T13:50:47.032Z,57.28
2018-01-25T13:53:14.565Z,59.40
2018-01-25T13:55:42.083Z,60.15
2018-01-25T13:58:09.603Z,59.81
2018-01-25T14:00:37.156Z,61.56
2018-01-25T14:03:04.674Z,61.65
2018-01-25T14:05:32.228Z,65.31
2018-01-25T14:07:59.803Z,65.71
2018-01-25T14:10:27.334Z,66.66
2018-01-25T14:12:54.863Z,65.66
2018-01-25T14:15:22.378Z,65.20
2018-01-25T14:17:49.985Z,65.71
2018-01-25T14:20:17.546Z,66.11
2018-01-25T14:22:45.074Z,67.72
2018-01-25T14:25:12.605Z,67.15
2018-01-25T14:27:40.114Z,64.71
2018-01-25T14:30:07.628Z,65.86
2018-01-25T14:32:35.167Z,67.57
2018-01-25T14:35:02.960Z,69.82
2018-01-25T14:37:30.495Z,70.65
2018-01-25T14:39:58.013Z,70.59
2018-01-25T14:42:25.531Z,69.81
2018-01-25T14:44:53.060Z,68.48
2018-01-25T14:47:20.601Z,68.50
2018-01-25T14:49:48.128Z,71.30
2018-01-25T14:52:15.660Z,69.75
2018-01-25T14:54:43.179Z,71.74
2018-01-25T14:57:10.715Z,73.02
2018-01-25T14:59:38.228Z,71.40
2018-01-25T15:02:05.755Z,68.59
2018-01-25T15:04:33.397Z,72.30
2018-01-25T15:07:01.178Z,73.11
2018-01-25T15:09:28.695Z,72.65
2018-01-25T15:11:56.211Z,72.69
2018-01-25T15:14:23.735Z,76.12
2018-01-25T15:16:51.285Z,74.88
2018-01-25T15:19:18.826Z,74.61
2018-01-25T15:21:46.356Z,78.95
2018-01-25T15:24:13.876Z,77.81
2018-01-25T15:26:47.145Z,77.15
2018-01-25T15:29:14.670Z,78.32
2018-01-25T15:31:42.180Z,78.09
2018-01-25T15:34:09.699Z,77.16
2018-01-25T15:36:37.245Z,77.97
2018-01-25T15:39:04.771Z,78.07
2018-01-25T15:41:32.289Z,77.90
2018-01-25T15:43:59.810Z,80.50
2018-01-25T15:46:27.331Z,80.99
2018-01-25T15:48:54.903Z,81.69
2018-01-25T15:51:22.401Z,82.02
2018-01-25T15:53:49.956Z,81.83
2018-01-25T15:56:17.779Z,82.07
2018-01-25T15:58:45.301Z,81.84
2018-01-25T16:01:12.820Z,81.38
2018-01-25T16:03:40.352Z,81.87
2018-01-25T16:06:07.850Z,83.43
2018-01-25T16:08:35.429Z,83.63
2018-01-25T16:11:02.961Z,83.96
2018-01-25T16:13:30.491Z,83.90
2018-01-25T16:15:58.005Z,83.69
2018-01-25T16:18:25.521Z,84.25
2018-01-25T16:20:53.245Z,84.50
2018-01-25T16:23:20.843Z,84.16
2018-01-25T16:25:48.452Z,84.54
2018-01-25T16:28:21.872Z,85.08
2018-01-25T16:30:49.454Z,85.18
2018-01-25T16:33:17.015Z,86.07
2018-01-25T16:35:44.531Z,85.30
2018-01-25T16:38:12.057Z,85.00
2018-01-25T16:40:39.580Z,85.55
2018-01-25T16:43:07.104Z,85.83
2018-01-25T16:45:34.689Z,86.66
2018-01-25T16:48:02.210Z,86.14
2018-01-25T16:50:29.740Z,85.37
2018-01-25T16:52:57.265Z,85.81
2018-01-25T16:55:24.783Z,86.03
2018-01-25T16:57:52.546Z,86.14
2018-01-25T17:00:20.070Z,86.21
2018-01-25T17:02:47.616Z,86.35
2018-01-25T17:05:15.374Z,86.41
2018-01-25T17:07:42.876Z,86.74
2018-01-25T17:10:10.412Z,87.17
2018-01-25T17:12:37.949Z,87.33
2018-01-25T17:15:05.475Z,87.87
2018-01-25T17:17:33.021Z,88.84
2018-01-25T17:20:00.586Z,89.21
2018-01-25T17:22:28.234Z,88.84
2018-01-25T17:24:55.791Z,88.80
2018-01-25T17:27:23.316Z,88.87
2018-01-25T17:29:50.835Z,88.90
2018-01-25T17:32:18.354Z,88.84
2018-01-25T17:34:45.901Z,88.49
2018-01-25T17:37:13.465Z,88.79
2018-01-25T17:39:40.986Z,89.97
2018-01-25T17:42:08.529Z,89.84
2018-01-25T17:44:36.071Z,89.50
2018-01-25T17:47:03.640Z,89.62
2018-01-25T17:49:31.235Z,89.85
2018-01-25T17:51:58.776Z,90.08
2018-01-25T17:54:26.344Z,89.64
2018-01-25T17:56:53.996Z,89.93
2018-01-25T17:59:21.547Z,90.23
2018-01-25T18:01:49.081Z,90.14
2018-01-25T18:04:16.620Z,91.24
2018-01-25T18:06:44.352Z,91.25
2018-01-25T18:09:12.011Z,91.40
2018-01-25T18:11:39.535Z,91.61
2018-01-25T18:14:07.065Z,91.61
2018-01-25T18:16:34.586Z,91.12
2018-01-25T18:19:02.126Z,91.39
2018-01-25T18:21:29.666Z,92.12
2018-01-25T18:23:57.269Z,92.15
2018-01-25T18:26:24.796Z,91.94
2018-01-25T18:28:52.333Z,92.10
2018-01-25T18:31:19.874Z,93.19
2018-01-25T18:33:47.426Z,93.32
2018-01-25T18:36:14.980Z,92.59
2018-01-25T18:38:42.516Z,92.54
2018-01-25T18:41:10.096Z,93.44
2018-01-25T18:43:37.706Z,94.18
2018-01-25T18:46:05.305Z,93.86
2018-01-25T18:48:32.839Z,93.60
2018-01-25T18:51:00.476Z,93.31
2018-01-25T18:53:28.055Z,93.22
2018-01-25T18:55:55.590Z,92.90
2018-01-25T18:58:23.123Z,92.79
2018-01-25T19:00:50.669Z,92.72
2018-01-25T19:03:18.204Z,92.37
2018-01-25T19:05:45.745Z,93.17
2018-01-25T19:08:13.284Z,92.73
2018-01-25T19:10:40.840Z,92.70
2018-01-25T19:13:08.382Z,92.79
2018-01-25T19:15:36.090Z,92.29
2018-01-25T19:18:03.646Z,92.21
2018-01-25T19:20:31.205Z,93.26
2018-01-25T19:22:58.767Z,93.26
2018-01-25T19:25:26.311Z,93.13
2018-01-25T19:27:53.885Z,93.09
2018-01-25T19:30:21.898Z,92.80
2018-01-25T19:32:49.468Z,93.08
2018-01-25T19:35:17.030Z,93.13
2018-01-25T19:37:44.570Z,92.61
2018-01-25T19:40:12.115Z,92.35
2018-01-25T19:42:40.196Z,92.35
2018-01-25T19:45:07.782Z,92.18
2018-01-25T19:47:35.387Z,92.64
2018-01-25T19:50:02.953Z,92.49
2018-01-25T19:52:30.526Z,93.32
2018-01-25T19:54:58.115Z,93.26
2018-01-25T19:57:25.649Z,93.38
2018-01-25T19:59:53.314Z,93.42
2018-01-25T20:02:21.081Z,93.40
2018-01-25T20:04:48.695Z,93.20
2018-01-25T20:07:16.392Z,93.39
2018-01-25T20:09:43.965Z,93.47
2018-01-25T20:12:11.527Z,93.32
2018-01-25T20:14:39.175Z,93.19
2018-01-25T20:17:06.722Z,93.29
2018-01-25T20:19:34.288Z,92.82
2018-01-25T20:22:01.875Z,92.94
2018-01-25T20:24:29.424Z,93.58
2018-01-25T20:26:56.959Z,92.81
2018-01-25T20:29:24.500Z,92.95
2018-01-25T20:31:52.060Z,92.75
2018-01-25T20:34:19.598Z,92.22
2018-01-25T20:36:47.151Z,92.79
2018-01-25T20:39:14.715Z,92.65
2018-01-25T20:41:42.245Z,92.83
2018-01-25T20:44:09.784Z,92.93
2018-01-25T20:46:37.406Z,92.99
2018-01-25T20:49:04.941Z,93.06
2018-01-25T20:51:32.484Z,93.02
2018-01-25T20:54:00.024Z,92.74
2018-01-25T20:56:27.591Z,92.60
2018-01-25T20:58:55.137Z,92.77
2018-01-25T21:01:22.687Z,93.38
2018-01-25T21:03:50.274Z,93.73
2018-01-25T21:06:17.876Z,93.73
2018-01-25T21:08:45.437Z,94.14
2018-01-25T21:11:12.992Z,94.03
2018-01-25T21:13:40.524Z,93.79
2018-01-25T21:16:08.077Z,93.54
2018-01-25T21:18:35.613Z,93.47
2018-01-25T21:21:03.176Z,93.39
2018-01-25T21:23:30.736Z,94.36
2018-01-25T21:25:58.331Z,94.08
2018-01-25T21:28:25.846Z,94.21
2018-01-25T21:30:53.473Z,94.44
2018-01-25T21:33:21.030Z,93.99
2018-01-25T21:35:48.573Z,93.68
2018-01-25T21:38:16.108Z,93.17
2018-01-25T21:40:43.624Z,93.44
2018-01-25T21:43:11.157Z,93.89
2018-01-25T21:45:38.686Z,93.91
2018-01-25T21:48:06.297Z,93.75
2018-01-25T21:50:33.831Z,93.67
2018-01-25T21:53:01.367Z,93.77
2018-01-25T21:55:28.904Z,93.54
2018-01-25T21:57:56.422Z,93.03
2018-01-25T22:00:23.955Z,93.69
2018-01-25T22:02:51.587Z,93.38
2018-01-25T22:05:19.195Z,93.22
2018-01-25T22:07:46.730Z,93.56
2018-01-25T22:10:14.266Z,93.73
2018-01-25T22:12:41.826Z,94.15
2018-01-25T22:15:09.375Z,94.83
2018-01-25T22:17:36.921Z,94.75
2018-01-25T22:20:04.468Z,94.51
2018-01-25T22:22:32.503Z,94.42
2018-01-25T22:25:00.026Z,94.67
2018-01-25T22:27:27.552Z,95.07
2018-01-25T22:29:55.210Z,94.64
2018-01-25T22:32:22.731Z,94.58
2018-01-25T22:34:50.249Z,94.61
2018-01-25T22:37:17.880Z,94.62
2018-01-25T22:39:45.415Z,94.98
2018-01-25T22:42:13.047Z,94.96
2018-01-25T22:44:40.586Z,94.67
2018-01-25T22:47:08.116Z,94.68
2018-01-25T22:49:35.650Z,95.13
2018-01-25T22:52:03.215Z,94.77
2018-01-25T22:54:30.751Z,94.97
2018-01-25T22:56:58.290Z,95.37
2018-01-25T22:59:25.834Z,95.09
2018-01-25T23:01:53.420Z,95.16
2018-01-25T23:04:20.976Z,95.28
2018-01-25T23:06:48.499Z,95.08
2018-01-25T23:09:16.020Z,95.12
2018-01-25T23:11:43.527Z,95.08
2018-01-25T23:14:11.064Z,95.21
2018-01-25T23:16:38.589Z,94.63
2018-01-25T23:19:06.106Z,95.62
2018-01-25T23:21:33.625Z,95.84
2018-01-25T23:24:01.167Z,95.49
2018-01-25T23:26:28.682Z,95.16
2018-01-25T23:28:56.210Z,95.45
2018-01-25T23:31:23.755Z,95.83
2018-01-25T23:33:51.287Z,95.55
2018-01-25T23:36:18.816Z,95.61
2018-01-25T23:38:46.350Z,95.56
2018-01-25T23:41:13.885Z,94.78
2018-01-25T23:43:41.377Z,95.44
2018-01-25T23:46:08.907Z,95.46
2018-01-25T23:48:36.431Z,95.42
2018-01-25T23:51:03.955Z,95.13
2018-01-25T23:53:31.531Z,94.91
2018-01-25T23:56:00.256Z,94.91
2018-01-25T23:58:27.860Z,94.68
